Time;durP1;ratioP1;P1;durP2;ratioP2;P2;SDS_P1;SDS_P2;PMS_P1;PMS_P2;Temp;Humidity;BMP_temperature;BMP_pressure;BME280_temperature;BME280_humidity;BME280_pressure;Samples;Min_cycle;Max_cycle;Signal;HPM_P1;HPM_P2
2024/04/16 00:02:09;;;;;;;;;;;;;;;4.04;100.00;93727.91;5387804;26;19929;-73
2024/04/16 00:04:37;;;;;;;;;;;;;;;3.94;100.00;93719.28;5391937;26;19933;-72
2024/04/16 00:07:04;;;;;;;;;;;;;;;4.00;100.00;93672.97;5399446;26;19935;-72
2024/04/16 00:09:32;;;;;;;;;;;;;;;4.02;100.00;93668.16;5391686;26;19935;-72
2024/04/16 00:12:00;;;;;;;;;;;;;;;3.92;100.00;93653.91;5389020;26;19936;-72
2024/04/16 00:14:53;;;;;;;;;;;;;;;4.03;100.00;93629.84;5353275;26;20331;-72
2024/04/16 00:17:23;;;;;;;;;;;;;;;4.05;100.00;93614.41;5369548;26;19933;-72
2024/04/16 00:19:50;;;;;;;;;;;;;;;4.10;100.00;93622.31;5391973;26;19929;-72
2024/04/16 00:22:18;;;;;;;;;;;;;;;3.97;100.00;93628.31;5361905;26;20832;-71
2024/04/16 00:24:45;;;;;;;;;;;;;;;3.98;100.00;93598.00;5379742;26;20356;-71
2024/04/16 00:27:12;;;;;;;;;;;;;;;3.94;100.00;93549.97;5365955;26;19929;-71
2024/04/16 00:29:42;;;;;;;;;;;;;;;3.96;100.00;93562.94;5399466;26;19929;-72
2024/04/16 00:32:10;;;;;;;;;;;;;;;3.94;100.00;93570.44;5387816;26;19929;-72
2024/04/16 00:34:37;;;;;;;;;;;;;;;3.91;100.00;93575.25;5373579;26;19929;-69
2024/04/16 00:37:05;;;;;;;;;;;;;;;4.05;100.00;93556.72;5398027;26;19936;-71
2024/04/16 00:39:32;;;;;;;;;;;;;;;3.84;100.00;93550.88;5405396;26;20428;-70
2024/04/16 00:41:59;;;;;;;;;;;;;;;3.87;100.00;93533.59;5400719;26;19929;-70
2024/04/16 00:44:27;;;;;;;;;;;;;;;3.90;100.00;93541.75;5404166;26;19963;-70
2024/04/16 00:46:55;;;;;;;;;;;;;;;3.94;100.00;93543.88;5403431;26;20376;-69
2024/04/16 00:49:22;;;;;;;;;;;;;;;3.87;100.00;93539.66;5397062;26;19929;-70
2024/04/16 00:51:51;;;;;;;;;;;;;;;4.01;100.00;93531.00;5401956;26;20267;-69
2024/04/16 00:54:19;;;;;;;;;;;;;;;3.82;100.00;93530.97;5392019;26;19935;-69
2024/04/16 00:56:46;;;;;;;;;;;;;;;3.82;100.00;93521.16;5388821;26;20112;-70
2024/04/16 00:59:13;;;;;;;;;;;;;;;3.76;100.00;93510.88;5388008;26;19928;-69
2024/04/16 01:01:41;;;;;;;;;;;;;;;3.76;100.00;93495.72;5357650;26;19935;-69
2024/04/16 01:04:08;;;;;;;;;;;;;;;3.83;100.00;93487.41;5386780;26;19929;-70
2024/04/16 01:06:36;;;;;;;;;;;;;;;3.83;100.00;93480.22;5393868;26;19947;-71
2024/04/16 01:09:03;;;;;;;;;;;;;;;3.78;100.00;93468.88;5391005;26;19937;-71
2024/04/16 01:11:30;;;;;;;;;;;;;;;3.72;100.00;93446.91;5399725;26;19929;-69
2024/04/16 01:13:57;;;;;;;;;;;;;;;3.75;100.00;93456.94;5389240;26;20612;-69
2024/04/16 01:16:25;;;;;;;;;;;;;;;3.75;100.00;93441.00;5390985;26;19963;-70
2024/04/16 01:18:52;;;;;;;;;;;;;;;3.76;100.00;93431.97;5389199;26;19928;-69
2024/04/16 01:21:19;;;;;;;;;;;;;;;3.68;100.00;93429.94;5401073;26;19929;-70
2024/04/16 01:23:47;;;;;;;;;;;;;;;3.76;100.00;93408.03;5387176;26;19929;-71
2024/04/16 01:26:14;;;;;;;;;;;;;;;3.80;100.00;93410.91;5386690;26;19935;-70
2024/04/16 01:28:41;;;;;;;;;;;;;;;3.72;100.00;93403.59;5394748;26;19929;-69
2024/04/16 01:31:09;;;;;;;;;;;;;;;3.69;100.00;93396.19;5392470;26;19935;-69
2024/04/16 01:33:36;;;;;;;;;;;;;;;3.62;100.00;93383.28;5388802;26;19935;-68
2024/04/16 01:36:04;;;;;;;;;;;;;;;3.67;100.00;93379.75;5393537;26;19936;-69
2024/04/16 01:38:32;;;;;;;;;;;;;;;3.68;100.00;93363.53;5389912;26;19929;-70
2024/04/16 01:41:01;;;;;;;;;;;;;;;3.72;100.00;93367.19;5399439;26;19936;-70
2024/04/16 01:43:28;;;;;;;;;;;;;;;3.68;100.00;93355.56;5398304;26;19929;-70
2024/04/16 01:45:56;;;;;;;;;;;;;;;3.75;100.00;93349.88;5392363;26;19930;-70
2024/04/16 01:48:23;;;;;;;;;;;;;;;3.64;100.00;93333.31;5388959;26;19929;-70
2024/04/16 01:50:50;;;;;;;;;;;;;;;3.67;100.00;93324.75;5394272;26;19935;-70
2024/04/16 01:53:18;;;;;;;;;;;;;;;3.66;100.00;93325.84;5391979;26;20852;-70
2024/04/16 01:55:45;;;;;;;;;;;;;;;3.71;100.00;93309.84;5387690;26;19939;-70
2024/04/16 01:58:12;;;;;;;;;;;;;;;3.78;100.00;93291.66;5354852;26;20368;-70
2024/04/16 02:00:40;;;;;;;;;;;;;;;3.84;100.00;93279.84;5351159;26;19936;-69
2024/04/16 02:03:08;;;;;;;;;;;;;;;3.70;100.00;93273.72;5359509;26;19936;-71
2024/04/16 02:05:40;;;;;;;;;;;;;;;3.71;100.00;93269.97;5328236;26;19937;-70
2024/04/16 02:08:08;;;;;;;;;;;;;;;3.68;100.00;93256.47;5349353;26;19929;-70
2024/04/16 02:10:35;;;;;;;;;;;;;;;3.81;100.00;93248.53;5359091;26;19930;-70
2024/04/16 02:13:02;;;;;;;;;;;;;;;3.89;100.00;93228.47;5359120;26;19929;-70
2024/04/16 02:15:30;;;;;;;;;;;;;;;3.88;100.00;93238.31;5345856;26;19936;-70
2024/04/16 02:17:57;;;;;;;;;;;;;;;3.88;100.00;93227.66;5360801;26;19964;-69
2024/04/16 02:20:25;;;;;;;;;;;;;;;3.80;100.00;93212.41;5351364;26;19936;-70
2024/04/16 02:22:52;;;;;;;;;;;;;;;3.80;100.00;93204.44;5357957;26;19929;-69
2024/04/16 02:25:19;;;;;;;;;;;;;;;3.72;100.00;93215.78;5339972;26;19936;-69
2024/04/16 02:27:47;;;;;;;;;;;;;;;3.74;100.00;93200.31;5359975;26;19936;-70
2024/04/16 02:30:14;;;;;;;;;;;;;;;3.73;100.00;93190.75;5351324;26;20267;-70
2024/04/16 02:32:41;;;;;;;;;;;;;;;3.89;100.00;93170.78;5360162;26;19936;-70
2024/04/16 02:35:09;;;;;;;;;;;;;;;3.94;100.00;93171.78;5357280;26;20940;-70
2024/04/16 02:37:36;;;;;;;;;;;;;;;3.97;100.00;93187.13;5355327;26;19930;-71
2024/04/16 02:40:03;;;;;;;;;;;;;;;4.00;100.00;93162.63;5352843;26;20248;-70
2024/04/16 02:42:31;;;;;;;;;;;;;;;3.92;100.00;93161.44;5349321;26;19936;-70
2024/04/16 02:44:58;;;;;;;;;;;;;;;3.86;100.00;93174.06;5363079;26;19929;-71
2024/04/16 02:47:25;;;;;;;;;;;;;;;3.92;100.00;93154.25;5361751;26;19929;-70
2024/04/16 02:49:53;;;;;;;;;;;;;;;3.90;100.00;93160.94;5352910;26;19930;-70
2024/04/16 02:52:20;;;;;;;;;;;;;;;4.00;100.00;93139.50;5353683;26;20267;-70
2024/04/16 02:57:37;;;;;;;;;;;;;;;4.00;100.00;93123.53;5258390;21;19933;-70
2024/04/16 03:00:05;;;;;;;;;;;;;;;3.91;100.00;93131.44;5417121;26;20276;-70
2024/04/16 03:02:32;;;;;;;;;;;;;;;4.00;100.00;93133.38;5416628;26;19929;-70
2024/04/16 03:04:59;;;;;;;;;;;;;;;3.86;100.00;93138.72;5417849;26;20296;-70
2024/04/16 03:07:27;;;;;;;;;;;;;;;3.84;100.00;93093.03;5414766;26;20355;-71
2024/04/16 03:09:54;;;;;;;;;;;;;;;3.84;100.00;93090.38;5416744;26;20583;-70
2024/04/16 03:12:22;;;;;;;;;;;;;;;3.70;100.00;93118.84;5402048;26;19929;-71
2024/04/16 03:14:52;;;;;;;;;;;;;;;3.58;100.00;93129.94;5420472;26;19935;-71
2024/04/16 03:17:20;;;;;;;;;;;;;;;3.43;100.00;93101.81;5419734;26;20402;-71
2024/04/16 03:19:47;;;;;;;;;;;;;;;3.49;100.00;93105.19;5420377;26;19929;-71
2024/04/16 03:22:14;;;;;;;;;;;;;;;3.65;100.00;93101.16;5416020;26;20072;-69
2024/04/16 03:24:42;;;;;;;;;;;;;;;3.61;100.00;93073.59;5418485;26;19952;-70
2024/04/16 03:27:09;;;;;;;;;;;;;;;3.67;100.00;93067.09;5419334;26;19983;-70
2024/04/16 03:29:36;;;;;;;;;;;;;;;3.60;100.00;93066.69;5416635;26;19929;-70
2024/04/16 03:32:04;;;;;;;;;;;;;;;3.54;100.00;93059.91;5420230;26;20264;-69
2024/04/16 03:34:31;;;;;;;;;;;;;;;3.39;100.00;93041.63;5385001;26;20286;-71
2024/04/16 03:37:00;;;;;;;;;;;;;;;3.47;100.00;93038.28;5421005;26;19946;-70
2024/04/16 03:39:30;;;;;;;;;;;;;;;3.59;100.00;93019.97;5419066;26;19936;-69
2024/04/16 03:41:57;;;;;;;;;;;;;;;3.72;100.00;93018.38;5417797;26;20267;-69
2024/04/16 03:44:24;;;;;;;;;;;;;;;3.79;100.00;93010.78;5420680;26;19935;-69
2024/04/16 03:46:52;;;;;;;;;;;;;;;3.84;100.00;93008.81;5420051;26;20164;-70
2024/04/16 03:49:19;;;;;;;;;;;;;;;3.85;100.00;92999.75;5419265;26;19929;-70
2024/04/16 03:51:46;;;;;;;;;;;;;;;3.57;100.00;93000.13;5417657;26;20399;-70
2024/04/16 03:54:14;;;;;;;;;;;;;;;3.50;100.00;93011.16;5417063;26;19935;-70
2024/04/16 03:56:41;;;;;;;;;;;;;;;3.46;100.00;93013.59;5421339;26;20270;-70
2024/04/16 03:59:16;;;;;;;;;;;;;;;3.53;100.00;92991.94;5420317;26;19928;-70
2024/04/16 04:01:43;;;;;;;;;;;;;;;3.49;100.00;92975.03;5419093;26;19935;-69
2024/04/16 04:04:11;;;;;;;;;;;;;;;3.56;100.00;92954.19;5418257;26;19929;-69
2024/04/16 04:06:39;;;;;;;;;;;;;;;3.49;100.00;92965.22;5390703;26;20070;-70
2024/04/16 04:09:06;;;;;;;;;;;;;;;3.58;100.00;92983.88;5419735;26;20415;-70
2024/04/16 04:11:33;;;;;;;;;;;;;;;3.63;100.00;92967.06;5418775;26;19957;-71
2024/04/16 04:14:00;;;;;;;;;;;;;;;3.67;100.00;92963.47;5416472;26;19933;-71
2024/04/16 04:16:28;;;;;;;;;;;;;;;3.64;100.00;92971.28;5422373;26;19929;-72
2024/04/16 04:18:55;;;;;;;;;;;;;;;3.65;100.00;92954.25;5420484;26;20254;-70
2024/04/16 04:21:23;;;;;;;;;;;;;;;3.74;100.00;92961.19;5389578;26;20538;-70
2024/04/16 04:23:50;;;;;;;;;;;;;;;3.70;100.00;92959.44;5422028;26;19929;-71
2024/04/16 04:26:17;;;;;;;;;;;;;;;3.65;100.00;92962.22;5423357;26;19928;-71
2024/04/16 04:28:44;;;;;;;;;;;;;;;3.59;100.00;92958.88;5405322;26;19929;-70
2024/04/16 04:31:16;;;;;;;;;;;;;;;3.48;100.00;92950.38;5416104;26;19929;-70
2024/04/16 04:33:44;;;;;;;;;;;;;;;3.45;100.00;92932.34;5419624;26;19928;-70
2024/04/16 04:36:12;;;;;;;;;;;;;;;3.49;100.00;92927.25;5418418;26;19928;-70
2024/04/16 04:38:40;;;;;;;;;;;;;;;3.66;100.00;92913.31;5419705;26;19928;-70
2024/04/16 04:41:08;;;;;;;;;;;;;;;3.70;100.00;92899.16;5390649;26;19935;-70
2024/04/16 04:43:36;;;;;;;;;;;;;;;3.66;100.00;92892.06;5420840;26;20576;-70
2024/04/16 04:46:03;;;;;;;;;;;;;;;3.72;100.00;92899.63;5418667;26;19933;-70
2024/04/16 04:48:30;;;;;;;;;;;;;;;3.65;100.00;92903.78;5421343;26;19929;-70
2024/04/16 04:50:58;;;;;;;;;;;;;;;3.62;100.00;92913.13;5420017;26;20355;-70
2024/04/16 04:53:25;;;;;;;;;;;;;;;3.61;100.00;92911.56;5421285;26;19935;-70
2024/04/16 04:55:52;;;;;;;;;;;;;;;3.60;100.00;92901.22;5422350;26;19952;-71
2024/04/16 04:58:20;;;;;;;;;;;;;;;3.57;100.00;92899.97;5388501;26;20064;-71
2024/04/16 05:00:48;;;;;;;;;;;;;;;3.71;100.00;92898.06;5418331;26;19929;-70
2024/04/16 05:03:15;;;;;;;;;;;;;;;3.65;100.00;92904.59;5419932;26;19928;-70
2024/04/16 05:05:46;;;;;;;;;;;;;;;3.59;100.00;92911.06;5420848;26;19929;-70
2024/04/16 05:08:13;;;;;;;;;;;;;;;3.59;100.00;92899.66;5419202;26;19928;-70
2024/04/16 05:10:40;;;;;;;;;;;;;;;3.57;100.00;92902.63;5419146;26;19928;-70
2024/04/16 05:13:09;;;;;;;;;;;;;;;3.62;100.00;92902.50;5421212;26;20334;-71
2024/04/16 05:15:36;;;;;;;;;;;;;;;3.58;100.00;92887.50;5421673;26;20178;-70
2024/04/16 05:18:04;;;;;;;;;;;;;;;3.59;100.00;92894.34;5420541;26;19935;-70
2024/04/16 05:20:31;;;;;;;;;;;;;;;3.57;100.00;92901.84;5420629;26;19929;-70
2024/04/16 05:22:59;;;;;;;;;;;;;;;3.55;100.00;92911.97;5424480;26;19929;-71
2024/04/16 05:25:26;;;;;;;;;;;;;;;3.54;100.00;92913.84;5420815;26;20366;-70
2024/04/16 05:27:53;;;;;;;;;;;;;;;3.61;100.00;92916.09;5419595;26;19940;-70
2024/04/16 05:30:21;;;;;;;;;;;;;;;3.63;100.00;92905.97;5420160;26;20918;-70
2024/04/16 05:32:53;;;;;;;;;;;;;;;3.64;100.00;92907.53;5421796;26;20312;-71
2024/04/16 05:35:20;;;;;;;;;;;;;;;3.62;100.00;92894.53;5418121;26;19932;-71
2024/04/16 05:37:48;;;;;;;;;;;;;;;3.64;100.00;92908.31;5418283;26;20010;-70
2024/04/16 05:40:16;;;;;;;;;;;;;;;3.83;100.00;92908.13;5424147;26;19928;-70
2024/04/16 05:42:44;;;;;;;;;;;;;;;3.85;100.00;92898.78;5417800;26;20353;-70
2024/04/16 05:45:11;;;;;;;;;;;;;;;3.76;100.00;92903.25;5419212;26;19929;-70
2024/04/16 05:47:38;;;;;;;;;;;;;;;3.69;100.00;92899.44;5420617;26;19929;-70
2024/04/16 05:50:06;;;;;;;;;;;;;;;3.62;100.00;92915.78;5418989;26;19929;-70
2024/04/16 05:52:33;;;;;;;;;;;;;;;3.71;100.00;92916.66;5417607;26;19929;-71
2024/04/16 05:55:01;;;;;;;;;;;;;;;3.62;100.00;92926.41;5422906;26;19928;-70
2024/04/16 05:57:28;;;;;;;;;;;;;;;3.63;100.00;92917.38;5421202;26;19929;-71
2024/04/16 05:59:55;;;;;;;;;;;;;;;3.54;100.00;92924.47;5419176;26;19929;-70
2024/04/16 06:02:25;;;;;;;;;;;;;;;3.58;100.00;92944.03;5421750;26;20491;-70
2024/04/16 06:04:52;;;;;;;;;;;;;;;3.52;100.00;92950.53;5422783;26;20270;-70
2024/04/16 06:07:20;;;;;;;;;;;;;;;3.48;100.00;92963.63;5421380;26;20058;-71
2024/04/16 06:09:47;;;;;;;;;;;;;;;3.50;100.00;92929.63;5419733;26;19929;-71
2024/04/16 06:12:15;;;;;;;;;;;;;;;3.50;100.00;92976.63;5419955;26;19932;-70
2024/04/16 06:14:42;;;;;;;;;;;;;;;3.51;100.00;92976.31;5419382;26;19929;-71
2024/04/16 06:17:10;;;;;;;;;;;;;;;3.55;100.00;92979.16;5420970;26;19935;-71
2024/04/16 06:19:38;;;;;;;;;;;;;;;3.56;100.00;92980.75;5416886;26;20289;-71
2024/04/16 06:22:05;;;;;;;;;;;;;;;3.63;100.00;92981.13;5390406;26;19929;-71
2024/04/16 06:24:32;;;;;;;;;;;;;;;3.65;100.00;92986.94;5421278;26;19940;-71
2024/04/16 06:26:59;;;;;;;;;;;;;;;3.72;100.00;92989.16;5420651;26;19929;-71
2024/04/16 06:29:27;;;;;;;;;;;;;;;3.98;100.00;92992.03;5419621;26;19928;-70
2024/04/16 06:31:54;;;;;;;;;;;;;;;4.52;100.00;92964.41;5420158;26;19928;-71
2024/04/16 06:34:21;;;;;;;;;;;;;;;4.94;100.00;92957.72;5419159;26;20451;-71
2024/04/16 06:36:49;;;;;;;;;;;;;;;5.18;100.00;92938.72;5418106;26;19928;-71
2024/04/16 06:39:16;;;;;;;;;;;;;;;5.14;100.00;92943.06;5419150;26;19934;-70
2024/04/16 06:41:43;;;;;;;;;;;;;;;5.04;100.00;92954.81;5413161;26;19929;-70
2024/04/16 06:44:10;;;;;;;;;;;;;;;4.92;100.00;92951.91;5417441;26;19928;-71
2024/04/16 06:46:38;;;;;;;;;;;;;;;5.24;100.00;92946.25;5418458;26;19929;-71
2024/04/16 06:49:05;;;;;;;;;;;;;;;5.13;100.00;92962.78;5418398;26;19933;-71
2024/04/16 06:51:45;;;;;;;;;;;;;;;5.10;100.00;92969.53;5416831;26;19935;-70
2024/04/16 06:54:12;;;;;;;;;;;;;;;5.10;100.00;92980.19;5419795;26;19928;-70
2024/04/16 06:56:42;;;;;;;;;;;;;;;5.43;100.00;92962.72;5417729;26;19936;-71
2024/04/16 06:59:10;;;;;;;;;;;;;;;5.50;100.00;92978.25;5416198;26;19928;-71
2024/04/16 07:01:37;;;;;;;;;;;;;;;5.28;100.00;93011.09;5418055;26;20286;-71
2024/04/16 07:04:04;;;;;;;;;;;;;;;5.26;100.00;93023.94;5420872;26;19935;-71
2024/04/16 07:06:32;;;;;;;;;;;;;;;5.54;100.00;93032.50;5413469;26;19929;-70
2024/04/16 07:09:00;;;;;;;;;;;;;;;5.76;100.00;93048.41;5418879;26;19928;-71
2024/04/16 07:11:28;;;;;;;;;;;;;;;5.72;100.00;93075.97;5419539;26;19935;-71
2024/04/16 07:13:56;;;;;;;;;;;;;;;5.62;100.00;93110.91;5419030;26;20305;-71
2024/04/16 07:16:23;;;;;;;;;;;;;;;5.57;100.00;93117.13;5416907;26;19935;-71
2024/04/16 07:18:53;;;;;;;;;;;;;;;5.48;100.00;93143.75;5417260;26;19929;-71
2024/04/16 07:21:20;;;;;;;;;;;;;;;5.38;100.00;93151.22;5417391;26;19929;-71
2024/04/16 07:23:47;;;;;;;;;;;;;;;5.27;100.00;93177.31;5420772;26;19929;-71
2024/04/16 07:26:15;;;;;;;;;;;;;;;5.45;100.00;93179.00;5420527;26;20273;-71
2024/04/16 07:28:42;;;;;;;;;;;;;;;5.47;100.00;93198.13;5418585;26;20273;-71
2024/04/16 07:31:09;;;;;;;;;;;;;;;5.15;100.00;93219.69;5416409;26;19929;-70
2024/04/16 07:33:44;;;;;;;;;;;;;;;5.42;100.00;93179.59;5417120;26;19929;-70
2024/04/16 07:36:11;;;;;;;;;;;;;;;6.11;100.00;93141.81;5418287;26;19929;-70
2024/04/16 07:38:39;;;;;;;;;;;;;;;6.32;100.00;93124.13;5421517;26;19935;-71
2024/04/16 07:41:06;;;;;;;;;;;;;;;6.55;100.00;93109.56;5417036;26;20342;-72
2024/04/16 07:43:34;;;;;;;;;;;;;;;6.73;100.00;93130.91;5414441;26;19935;-70
2024/04/16 07:46:01;;;;;;;;;;;;;;;6.67;100.00;93164.19;5418639;26;19929;-71
2024/04/16 07:48:29;;;;;;;;;;;;;;;6.30;100.00;93225.03;5420770;26;19939;-71
2024/04/16 07:50:56;;;;;;;;;;;;;;;6.20;100.00;93260.78;5423844;26;19935;-70
2024/04/16 07:53:23;;;;;;;;;;;;;;;6.14;100.00;93307.34;5416730;26;19928;-71
2024/04/16 07:55:51;;;;;;;;;;;;;;;6.13;100.00;93321.00;5420255;26;19935;-70
2024/04/16 07:58:18;;;;;;;;;;;;;;;6.20;100.00;93350.69;5420893;26;19928;-71
2024/04/16 08:00:45;;;;;;;;;;;;;;;6.21;100.00;93366.38;5422651;26;19935;-70
2024/04/16 08:03:13;;;;;;;;;;;;;;;6.18;100.00;93399.00;5419337;26;20528;-70
2024/04/16 08:05:40;;;;;;;;;;;;;;;6.22;100.00;93410.63;5420524;26;19934;-70
2024/04/16 08:08:07;;;;;;;;;;;;;;;6.13;100.00;93459.69;5422981;26;19932;-71
2024/04/16 08:10:41;;;;;;;;;;;;;;;6.19;100.00;93469.94;5420889;26;19939;-70
2024/04/16 08:13:09;;;;;;;;;;;;;;;6.17;100.00;93493.44;5421917;26;19929;-71
2024/04/16 08:15:37;;;;;;;;;;;;;;;6.43;100.00;93487.53;5422015;26;19929;-71
2024/04/16 08:18:04;;;;;;;;;;;;;;;6.58;100.00;93476.47;5420664;26;19935;-71
2024/04/16 08:20:32;;;;;;;;;;;;;;;6.51;100.00;93532.94;5421339;26;20352;-70
2024/04/16 08:22:59;;;;;;;;;;;;;;;6.37;100.00;93550.88;5420728;26;19935;-70
2024/04/16 08:25:26;;;;;;;;;;;;;;;6.41;100.00;93599.91;5419406;26;19929;-71
2024/04/16 08:27:54;;;;;;;;;;;;;;;6.61;100.00;93604.00;5417792;26;19965;-70
2024/04/16 08:30:21;;;;;;;;;;;;;;;6.57;100.00;93627.06;5421958;26;20133;-71
2024/04/16 08:32:48;;;;;;;;;;;;;;;6.63;100.00;93677.34;5418687;26;19929;-72
2024/04/16 08:35:26;;;;;;;;;;;;;;;6.81;100.00;93710.31;5418047;26;19935;-70
2024/04/16 08:37:54;;;;;;;;;;;;;;;7.03;100.00;93738.94;5421606;26;20358;-71
2024/04/16 08:40:23;;;;;;;;;;;;;;;7.23;100.00;93769.78;5419319;26;20197;-70
2024/04/16 08:42:51;;;;;;;;;;;;;;;7.15;100.00;93827.41;5421304;26;19929;-71
2024/04/16 08:45:20;;;;;;;;;;;;;;;7.15;100.00;93888.84;5422904;26;20595;-72
2024/04/16 08:47:49;;;;;;;;;;;;;;;6.82;100.00;93970.94;5389605;26;20913;-71
2024/04/16 08:50:17;;;;;;;;;;;;;;;6.89;100.00;94008.72;5390491;26;19929;-71
2024/04/16 08:52:45;;;;;;;;;;;;;;;6.91;100.00;94046.63;5417583;26;19929;-71
2024/04/16 08:55:13;;;;;;;;;;;;;;;6.89;100.00;94091.53;5421926;26;19928;-72
2024/04/16 08:57:40;;;;;;;;;;;;;;;6.78;100.00;94122.16;5419600;26;19928;-72
2024/04/16 09:00:08;;;;;;;;;;;;;;;6.79;100.00;94166.47;5415519;26;19928;-71
2024/04/16 09:02:36;;;;;;;;;;;;;;;6.83;100.00;94177.38;5419942;26;20373;-72
2024/04/16 09:05:03;;;;;;;;;;;;;;;6.67;100.00;94232.84;5420527;26;20402;-71
2024/04/16 09:07:32;;;;;;;;;;;;;;;6.55;100.00;94269.84;5418177;26;20231;-71
2024/04/16 09:10:01;;;;;;;;;;;;;;;6.37;100.00;94305.28;5418240;26;19936;-70
2024/04/16 09:12:28;;;;;;;;;;;;;;;6.48;100.00;94328.94;5417926;26;19939;-71
2024/04/16 09:14:55;;;;;;;;;;;;;;;6.32;100.00;94337.38;5418010;26;20362;-70
2024/04/16 09:17:22;;;;;;;;;;;;;;;6.37;100.00;94359.44;5421279;26;19929;-70
2024/04/16 09:19:50;;;;;;;;;;;;;;;6.45;100.00;94369.53;5419205;26;20379;-71
2024/04/16 09:22:18;;;;;;;;;;;;;;;6.59;100.00;94375.78;5419995;26;19968;-70
2024/04/16 09:24:45;;;;;;;;;;;;;;;6.73;100.00;94377.78;5385006;26;19929;-71
2024/04/16 09:27:12;;;;;;;;;;;;;;;6.83;100.00;94391.81;5421938;26;19929;-70
2024/04/16 09:29:40;;;;;;;;;;;;;;;6.79;100.00;94419.38;5420012;26;19928;-71
2024/04/16 09:32:07;;;;;;;;;;;;;;;6.72;100.00;94443.72;5392753;26;19929;-69
2024/04/16 09:34:34;;;;;;;;;;;;;;;6.62;100.00;94459.88;5420150;26;20398;-70
2024/04/16 09:37:02;;;;;;;;;;;;;;;6.82;100.00;94459.66;5419079;26;20262;-70
2024/04/16 09:39:29;;;;;;;;;;;;;;;7.29;100.00;94447.41;5421991;26;20434;-70
2024/04/16 09:41:57;;;;;;;;;;;;;;;7.39;100.00;94442.72;5421585;26;19935;-70
2024/04/16 09:44:25;;;;;;;;;;;;;;;7.38;100.00;94472.41;5422774;26;19928;-70
2024/04/16 09:46:54;;;;;;;;;;;;;;;7.26;100.00;94496.09;5416228;26;19935;-71
2024/04/16 09:49:23;;;;;;;;;;;;;;;7.19;100.00;94509.00;5419411;26;20380;-70
2024/04/16 09:52:01;;;;;;;;;;;;;;;7.15;100.00;94521.34;5415371;26;19935;-71
2024/04/16 09:54:29;;;;;;;;;;;;;;;7.02;100.00;94534.25;5424613;26;20721;-70
2024/04/16 09:56:57;;;;;;;;;;;;;;;6.97;100.00;94542.34;5419554;26;20354;-71
2024/04/16 09:59:24;;;;;;;;;;;;;;;7.26;100.00;94536.97;5419301;26;20351;-70
2024/04/16 10:01:53;;;;;;;;;;;;;;;7.46;100.00;94545.84;5421780;26;19945;-71
2024/04/16 10:04:20;;;;;;;;;;;;;;;7.63;100.00;94549.69;5423046;26;20385;-70
2024/04/16 10:06:49;;;;;;;;;;;;;;;7.68;100.00;94557.63;5421676;26;19935;-71
2024/04/16 10:09:17;;;;;;;;;;;;;;;7.59;100.00;94570.06;5420041;26;20475;-70
2024/04/16 10:11:47;;;;;;;;;;;;;;;7.43;100.00;94577.44;5415314;26;19928;-70
2024/04/16 10:14:15;;;;;;;;;;;;;;;7.34;100.00;94579.13;5419120;26;19934;-71
2024/04/16 10:16:42;;;;;;;;;;;;;;;7.29;100.00;94573.84;5420125;26;19928;-70
2024/04/16 10:19:13;;;;;;;;;;;;;;;7.37;100.00;94580.44;5417849;26;19928;-70
2024/04/16 10:21:42;;;;;;;;;;;;;;;7.27;100.00;94570.66;5420875;26;19928;-70
2024/04/16 10:24:10;;;;;;;;;;;;;;;7.21;100.00;94579.78;5416449;26;19935;-71
2024/04/16 10:26:42;;;;;;;;;;;;;;;7.16;100.00;94574.47;5415539;26;19928;-71
2024/04/16 10:29:13;;;;;;;;;;;;;;;7.24;100.00;94568.53;5416807;26;19935;-70
2024/04/16 10:31:40;;;;;;;;;;;;;;;7.16;100.00;94587.06;5422042;26;19928;-69
2024/04/16 10:34:17;;;;;;;;;;;;;;;7.22;100.00;94586.75;5417523;26;20363;-71
2024/04/16 10:36:45;;;;;;;;;;;;;;;7.16;100.00;94587.06;5416934;26;19936;-71
2024/04/16 10:39:13;;;;;;;;;;;;;;;7.17;100.00;94583.28;5418063;26;20163;-70
2024/04/16 10:41:51;;;;;;;;;;;;;;;7.16;100.00;94584.41;5420058;26;19929;-71
2024/04/16 10:44:19;;;;;;;;;;;;;;;7.26;100.00;94569.06;5415950;26;20043;-70
2024/04/16 10:46:47;;;;;;;;;;;;;;;7.31;100.00;94590.38;5418606;26;19935;-70
2024/04/16 10:49:14;;;;;;;;;;;;;;;7.38;100.00;94585.50;5421313;26;19929;-71
2024/04/16 10:51:42;;;;;;;;;;;;;;;7.54;100.00;94583.47;5421472;26;19934;-70
2024/04/16 10:54:09;;;;;;;;;;;;;;;7.59;100.00;94579.97;5421341;26;19929;-70
2024/04/16 10:56:37;;;;;;;;;;;;;;;7.56;100.00;94581.31;5416041;26;20661;-72
2024/04/16 10:59:12;;;;;;;;;;;;;;;7.80;100.00;94576.78;5419088;26;19929;-71
2024/04/16 11:01:40;;;;;;;;;;;;;;;7.81;100.00;94583.72;5419481;26;19928;-70
2024/04/16 11:04:12;;;;;;;;;;;;;;;7.85;100.00;94575.91;5420288;26;20203;-71
2024/04/16 11:06:40;;;;;;;;;;;;;;;7.83;100.00;94594.91;5420195;26;19929;-70
2024/04/16 11:09:07;;;;;;;;;;;;;;;7.98;100.00;94574.41;5418443;26;19928;-71
2024/04/16 11:11:35;;;;;;;;;;;;;;;8.02;100.00;94586.94;5417950;26;19929;-70
2024/04/16 11:14:02;;;;;;;;;;;;;;;8.15;100.00;94583.56;5422078;26;19928;-71
2024/04/16 11:16:30;;;;;;;;;;;;;;;8.19;100.00;94583.75;5420467;26;20380;-71
2024/04/16 11:18:58;;;;;;;;;;;;;;;8.10;100.00;94580.16;5415396;26;20388;-70
2024/04/16 11:21:29;;;;;;;;;;;;;;;8.00;100.00;94580.28;5418456;26;19929;-71
2024/04/16 11:23:57;;;;;;;;;;;;;;;7.89;100.00;94584.94;5416832;26;19933;-71
2024/04/16 11:26:24;;;;;;;;;;;;;;;7.72;100.00;94585.41;5416891;26;19929;-71
2024/04/16 11:28:52;;;;;;;;;;;;;;;7.83;100.00;94586.88;5418869;26;19935;-70
2024/04/16 11:31:19;;;;;;;;;;;;;;;7.89;100.00;94597.53;5403202;26;19935;-71
2024/04/16 11:33:46;;;;;;;;;;;;;;;7.92;100.00;94588.94;5415217;26;19929;-71
2024/04/16 11:36:16;;;;;;;;;;;;;;;7.97;100.00;94594.22;5418506;26;19935;-71
2024/04/16 11:38:43;;;;;;;;;;;;;;;8.13;100.00;94590.28;5418495;26;19935;-70
2024/04/16 11:41:12;;;;;;;;;;;;;;;8.27;100.00;94577.78;5417540;26;20281;-71
2024/04/16 11:43:41;;;;;;;;;;;;;;;8.30;100.00;94579.09;5415990;26;20898;-70
2024/04/16 11:46:11;;;;;;;;;;;;;;;8.26;100.00;94556.63;5415876;26;19935;-70
2024/04/16 11:48:39;;;;;;;;;;;;;;;8.18;100.00;94571.50;5415899;26;20034;-71
2024/04/16 11:51:06;;;;;;;;;;;;;;;8.08;100.00;94577.75;5418606;26;19929;-71
2024/04/16 11:53:34;;;;;;;;;;;;;;;7.97;100.00;94570.94;5420574;26;19962;-71
2024/04/16 11:56:01;;;;;;;;;;;;;;;8.01;100.00;94573.84;5417254;26;19928;-71
2024/04/16 11:58:28;;;;;;;;;;;;;;;7.94;100.00;94582.22;5418415;26;20355;-69
2024/04/16 12:00:56;;;;;;;;;;;;;;;7.92;100.00;94578.22;5415181;26;20368;-70
2024/04/16 12:03:23;;;;;;;;;;;;;;;7.90;100.00;94580.38;5420762;26;19929;-70
2024/04/16 12:05:50;;;;;;;;;;;;;;;7.85;100.00;94567.06;5415457;26;19929;-71
2024/04/16 12:08:19;;;;;;;;;;;;;;;7.71;100.00;94575.81;5417914;26;19934;-69
2024/04/16 12:10:46;;;;;;;;;;;;;;;7.69;100.00;94567.25;5419331;26;19929;-70
2024/04/16 12:13:13;;;;;;;;;;;;;;;7.72;100.00;94563.22;5417094;26;19928;-71
2024/04/16 12:15:41;;;;;;;;;;;;;;;7.68;100.00;94567.53;5420192;26;20750;-70
2024/04/16 12:18:08;;;;;;;;;;;;;;;7.67;100.00;94542.66;5415542;26;19936;-71
2024/04/16 12:20:35;;;;;;;;;;;;;;;7.57;100.00;94529.44;5422030;26;20319;-72
2024/04/16 12:23:03;;;;;;;;;;;;;;;7.73;100.00;94522.81;5415191;26;19930;-71
2024/04/16 12:25:30;;;;;;;;;;;;;;;7.65;100.00;94502.06;5411773;26;19929;-69
2024/04/16 12:27:57;;;;;;;;;;;;;;;7.63;100.00;94509.56;5417064;26;20367;-70
2024/04/16 12:30:24;;;;;;;;;;;;;;;7.60;100.00;94507.44;5401505;26;19929;-70
2024/04/16 12:32:52;;;;;;;;;;;;;;;7.55;100.00;94488.78;5417336;26;19955;-70
2024/04/16 12:35:22;;;;;;;;;;;;;;;7.49;100.00;94489.94;5423226;26;19963;-70
2024/04/16 12:37:49;;;;;;;;;;;;;;;7.43;100.00;94469.69;5421745;26;19929;-71
2024/04/16 12:40:17;;;;;;;;;;;;;;;7.30;100.00;94465.06;5419763;26;19939;-71
2024/04/16 12:42:44;;;;;;;;;;;;;;;7.22;100.00;94455.00;5420982;26;19929;-70
2024/04/16 12:45:12;;;;;;;;;;;;;;;7.15;100.00;94441.97;5419484;26;19935;-70
2024/04/16 12:47:39;;;;;;;;;;;;;;;7.13;100.00;94413.94;5419865;26;20273;-70
2024/04/16 12:50:06;;;;;;;;;;;;;;;7.04;100.00;94392.38;5421211;26;19929;-70
2024/04/16 12:52:34;;;;;;;;;;;;;;;6.94;100.00;94331.84;5418450;26;19936;-70
2024/04/16 12:55:01;;;;;;;;;;;;;;;7.02;100.00;94277.00;5417374;26;19935;-70